sensor_id;sensor_type;location;lat;lon;timestamp;P1;durP1;ratioP1;P2;durP2;ratioP2
9834;SDS011;4956;50.996;13.716;2023-03-01T00:02:27;43.58;;;22.90;;
9834;SDS011;4956;50.996;13.716;2023-03-01T00:05:48;39.35;;;22.33;;
9834;SDS011;4956;50.996;13.716;2023-03-01T00:09:08;40.33;;;23.23;;
9834;SDS011;4956;50.996;13.716;2023-03-01T00:12:28;40.75;;;22.42;;
9834;SDS011;4956;50.996;13.716;2023-03-01T00:15:49;39.42;;;22.08;;
9834;SDS011;4956;50.996;13.716;2023-03-01T00:19:10;43.03;;;23.88;;
9834;SDS011;4956;50.996;13.716;2023-03-01T00:22:35;39.72;;;23.23;;
9834;SDS011;4956;50.996;13.716;2023-03-01T00:25:56;39.55;;;22.98;;
9834;SDS011;4956;50.996;13.716;2023-03-01T00:29:16;38.10;;;22.83;;
9834;SDS011;4956;50.996;13.716;2023-03-01T00:32:36;38.20;;;21.98;;
9834;SDS011;4956;50.996;13.716;2023-03-01T00:36:00;40.35;;;22.42;;
9834;SDS011;4956;50.996;13.716;2023-03-01T00:39:21;37.60;;;22.88;;
9834;SDS011;4956;50.996;13.716;2023-03-01T00:42:41;38.95;;;21.90;;
9834;SDS011;4956;50.996;13.716;2023-03-01T00:46:06;37.63;;;20.90;;
9834;SDS011;4956;50.996;13.716;2023-03-01T00:49:28;36.83;;;20.67;;
9834;SDS011;4956;50.996;13.716;2023-03-01T00:52:54;37.33;;;20.70;;
9834;SDS011;4956;50.996;13.716;2023-03-01T00:56:15;38.05;;;21.25;;
9834;SDS011;4956;50.996;13.716;2023-03-01T00:59:37;39.42;;;21.33;;
9834;SDS011;4956;50.996;13.716;2023-03-01T01:02:57;35.67;;;20.45;;
9834;SDS011;4956;50.996;13.716;2023-03-01T01:06:21;35.42;;;20.50;;
9834;SDS011;4956;50.996;13.716;2023-03-01T01:09:46;37.63;;;20.10;;
9834;SDS011;4956;50.996;13.716;2023-03-01T01:13:07;34.38;;;20.45;;
9834;SDS011;4956;50.996;13.716;2023-03-01T01:16:27;39.80;;;21.58;;
9834;SDS011;4956;50.996;13.716;2023-03-01T01:19:48;39.80;;;21.42;;
9834;SDS011;4956;50.996;13.716;2023-03-01T01:23:09;39.55;;;22.17;;
9834;SDS011;4956;50.996;13.716;2023-03-01T01:26:30;38.85;;;21.90;;
9834;SDS011;4956;50.996;13.716;2023-03-01T01:29:52;37.30;;;21.45;;
9834;SDS011;4956;50.996;13.716;2023-03-01T01:33:13;40.33;;;22.85;;
9834;SDS011;4956;50.996;13.716;2023-03-01T01:36:34;42.65;;;23.42;;
9834;SDS011;4956;50.996;13.716;2023-03-01T01:39:54;44.35;;;23.80;;
9834;SDS011;4956;50.996;13.716;2023-03-01T01:43:19;42.70;;;23.73;;
9834;SDS011;4956;50.996;13.716;2023-03-01T01:46:48;42.65;;;23.77;;
9834;SDS011;4956;50.996;13.716;2023-03-01T01:50:29;43.38;;;25.08;;
9834;SDS011;4956;50.996;13.716;2023-03-01T01:53:58;46.95;;;25.25;;
9834;SDS011;4956;50.996;13.716;2023-03-01T01:57:23;43.97;;;24.75;;
9834;SDS011;4956;50.996;13.716;2023-03-01T02:00:46;42.70;;;23.75;;
9834;SDS011;4956;50.996;13.716;2023-03-01T02:04:08;40.25;;;23.30;;
9834;SDS011;4956;50.996;13.716;2023-03-01T02:07:28;42.45;;;23.15;;
9834;SDS011;4956;50.996;13.716;2023-03-01T02:10:49;37.50;;;21.77;;
9834;SDS011;4956;50.996;13.716;2023-03-01T02:14:10;39.47;;;22.15;;
9834;SDS011;4956;50.996;13.716;2023-03-01T02:17:30;38.50;;;22.15;;
9834;SDS011;4956;50.996;13.716;2023-03-01T02:21:05;41.30;;;22.65;;
9834;SDS011;4956;50.996;13.716;2023-03-01T02:24:47;37.55;;;21.35;;
9834;SDS011;4956;50.996;13.716;2023-03-01T02:28:28;38.40;;;21.77;;
9834;SDS011;4956;50.996;13.716;2023-03-01T02:31:51;41.05;;;22.60;;
9834;SDS011;4956;50.996;13.716;2023-03-01T02:35:14;44.08;;;23.35;;
9834;SDS011;4956;50.996;13.716;2023-03-01T02:38:36;38.83;;;22.63;;
9834;SDS011;4956;50.996;13.716;2023-03-01T02:41:56;39.50;;;21.98;;
9834;SDS011;4956;50.996;13.716;2023-03-01T02:45:17;41.72;;;22.65;;
9834;SDS011;4956;50.996;13.716;2023-03-01T02:48:41;41.45;;;23.83;;
9834;SDS011;4956;50.996;13.716;2023-03-01T02:52:07;40.67;;;23.10;;
9834;SDS011;4956;50.996;13.716;2023-03-01T02:55:33;41.35;;;23.02;;
9834;SDS011;4956;50.996;13.716;2023-03-01T02:58:54;44.38;;;23.15;;
9834;SDS011;4956;50.996;13.716;2023-03-01T03:02:18;44.85;;;23.77;;
9834;SDS011;4956;50.996;13.716;2023-03-01T03:06:10;42.13;;;22.73;;
9834;SDS011;4956;50.996;13.716;2023-03-01T03:09:31;43.65;;;23.83;;
9834;SDS011;4956;50.996;13.716;2023-03-01T03:12:52;42.58;;;23.52;;
9834;SDS011;4956;50.996;13.716;2023-03-01T03:16:17;45.42;;;23.98;;
9834;SDS011;4956;50.996;13.716;2023-03-01T03:19:38;45.65;;;24.27;;
9834;SDS011;4956;50.996;13.716;2023-03-01T03:22:59;42.40;;;24.73;;
9834;SDS011;4956;50.996;13.716;2023-03-01T03:26:19;43.80;;;24.45;;
9834;SDS011;4956;50.996;13.716;2023-03-01T03:29:39;43.80;;;24.40;;
9834;SDS011;4956;50.996;13.716;2023-03-01T03:33:00;43.42;;;23.42;;
9834;SDS011;4956;50.996;13.716;2023-03-01T03:36:21;46.58;;;25.27;;
9834;SDS011;4956;50.996;13.716;2023-03-01T03:39:42;44.70;;;25.20;;
9834;SDS011;4956;50.996;13.716;2023-03-01T03:43:03;47.67;;;25.55;;
9834;SDS011;4956;50.996;13.716;2023-03-01T03:46:24;45.35;;;25.33;;
9834;SDS011;4956;50.996;13.716;2023-03-01T03:49:46;45.45;;;24.48;;
9834;SDS011;4956;50.996;13.716;2023-03-01T03:53:07;44.72;;;24.30;;
9834;SDS011;4956;50.996;13.716;2023-03-01T03:56:29;45.30;;;24.58;;
9834;SDS011;4956;50.996;13.716;2023-03-01T03:59:49;45.25;;;24.10;;
9834;SDS011;4956;50.996;13.716;2023-03-01T04:03:10;45.47;;;24.70;;
9834;SDS011;4956;50.996;13.716;2023-03-01T04:06:32;47.17;;;24.70;;
9834;SDS011;4956;50.996;13.716;2023-03-01T04:09:53;45.83;;;25.02;;
9834;SDS011;4956;50.996;13.716;2023-03-01T04:13:14;45.85;;;25.35;;
9834;SDS011;4956;50.996;13.716;2023-03-01T04:16:36;47.42;;;25.48;;
9834;SDS011;4956;50.996;13.716;2023-03-01T04:19:56;44.83;;;25.20;;
9834;SDS011;4956;50.996;13.716;2023-03-01T04:23:17;41.67;;;23.90;;
9834;SDS011;4956;50.996;13.716;2023-03-01T04:26:40;43.70;;;24.67;;
9834;SDS011;4956;50.996;13.716;2023-03-01T04:30:01;42.70;;;24.40;;
9834;SDS011;4956;50.996;13.716;2023-03-01T04:33:23;49.65;;;25.80;;
9834;SDS011;4956;50.996;13.716;2023-03-01T04:36:45;47.83;;;26.70;;
9834;SDS011;4956;50.996;13.716;2023-03-01T04:40:05;44.03;;;24.77;;
9834;SDS011;4956;50.996;13.716;2023-03-01T04:43:36;45.25;;;25.23;;
9834;SDS011;4956;50.996;13.716;2023-03-01T04:46:57;43.33;;;24.58;;
9834;SDS011;4956;50.996;13.716;2023-03-01T04:50:17;48.00;;;26.63;;
9834;SDS011;4956;50.996;13.716;2023-03-01T04:53:40;42.13;;;24.05;;
9834;SDS011;4956;50.996;13.716;2023-03-01T04:57:01;46.65;;;25.02;;
9834;SDS011;4956;50.996;13.716;2023-03-01T05:00:22;44.67;;;25.05;;
9834;SDS011;4956;50.996;13.716;2023-03-01T05:03:43;47.85;;;25.63;;
9834;SDS011;4956;50.996;13.716;2023-03-01T05:07:05;47.10;;;24.38;;
9834;SDS011;4956;50.996;13.716;2023-03-01T05:10:25;43.65;;;23.70;;
9834;SDS011;4956;50.996;13.716;2023-03-01T05:13:49;45.38;;;24.67;;
9834;SDS011;4956;50.996;13.716;2023-03-01T05:17:14;40.85;;;23.50;;
9834;SDS011;4956;50.996;13.716;2023-03-01T05:20:35;46.58;;;25.80;;
9834;SDS011;4956;50.996;13.716;2023-03-01T05:23:56;46.03;;;24.40;;
9834;SDS011;4956;50.996;13.716;2023-03-01T05:27:16;45.35;;;24.83;;
9834;SDS011;4956;50.996;13.716;2023-03-01T05:30:36;47.50;;;25.17;;
9834;SDS011;4956;50.996;13.716;2023-03-01T05:33:59;49.10;;;24.95;;
9834;SDS011;4956;50.996;13.716;2023-03-01T05:37:19;47.40;;;24.40;;
9834;SDS011;4956;50.996;13.716;2023-03-01T05:40:40;48.80;;;25.38;;
9834;SDS011;4956;50.996;13.716;2023-03-01T05:44:01;47.08;;;24.70;;
9834;SDS011;4956;50.996;13.716;2023-03-01T05:47:21;45.03;;;24.63;;
9834;SDS011;4956;50.996;13.716;2023-03-01T05:50:43;45.00;;;24.35;;
9834;SDS011;4956;50.996;13.716;2023-03-01T05:54:04;47.30;;;24.48;;
9834;SDS011;4956;50.996;13.716;2023-03-01T05:57:27;46.72;;;24.65;;
9834;SDS011;4956;50.996;13.716;2023-03-01T06:00:49;47.25;;;24.60;;
9834;SDS011;4956;50.996;13.716;2023-03-01T06:04:10;45.08;;;24.83;;
9834;SDS011;4956;50.996;13.716;2023-03-01T06:07:30;48.17;;;26.58;;
9834;SDS011;4956;50.996;13.716;2023-03-01T06:10:51;45.63;;;24.90;;
9834;SDS011;4956;50.996;13.716;2023-03-01T06:14:11;46.70;;;25.50;;
9834;SDS011;4956;50.996;13.716;2023-03-01T06:17:35;49.17;;;26.63;;
9834;SDS011;4956;50.996;13.716;2023-03-01T06:20:57;51.58;;;26.58;;
9834;SDS011;4956;50.996;13.716;2023-03-01T06:24:17;52.10;;;28.10;;
9834;SDS011;4956;50.996;13.716;2023-03-01T06:27:38;48.83;;;27.92;;
9834;SDS011;4956;50.996;13.716;2023-03-01T06:30:58;51.53;;;27.10;;
9834;SDS011;4956;50.996;13.716;2023-03-01T06:34:18;50.75;;;26.52;;
9834;SDS011;4956;50.996;13.716;2023-03-01T06:37:39;50.47;;;26.80;;
9834;SDS011;4956;50.996;13.716;2023-03-01T06:41:01;49.70;;;27.77;;
9834;SDS011;4956;50.996;13.716;2023-03-01T06:44:24;50.90;;;27.67;;
9834;SDS011;4956;50.996;13.716;2023-03-01T06:47:44;53.88;;;30.50;;
9834;SDS011;4956;50.996;13.716;2023-03-01T06:51:07;56.90;;;30.33;;
9834;SDS011;4956;50.996;13.716;2023-03-01T06:54:27;51.70;;;28.40;;
9834;SDS011;4956;50.996;13.716;2023-03-01T06:57:47;68.22;;;32.58;;
9834;SDS011;4956;50.996;13.716;2023-03-01T07:01:08;65.43;;;31.92;;
9834;SDS011;4956;50.996;13.716;2023-03-01T07:04:29;55.70;;;28.90;;
9834;SDS011;4956;50.996;13.716;2023-03-01T07:07:50;53.97;;;29.63;;
9834;SDS011;4956;50.996;13.716;2023-03-01T07:11:10;56.30;;;31.85;;
9834;SDS011;4956;50.996;13.716;2023-03-01T07:14:31;55.33;;;30.50;;
9834;SDS011;4956;50.996;13.716;2023-03-01T07:17:51;47.50;;;27.60;;
9834;SDS011;4956;50.996;13.716;2023-03-01T07:21:12;47.80;;;27.73;;
9834;SDS011;4956;50.996;13.716;2023-03-01T07:24:33;43.67;;;26.60;;
9834;SDS011;4956;50.996;13.716;2023-03-01T07:27:54;44.03;;;25.35;;
9834;SDS011;4956;50.996;13.716;2023-03-01T07:31:14;45.95;;;25.50;;
9834;SDS011;4956;50.996;13.716;2023-03-01T07:34:34;43.10;;;24.88;;
9834;SDS011;4956;50.996;13.716;2023-03-01T07:37:55;42.13;;;24.20;;
9834;SDS011;4956;50.996;13.716;2023-03-01T07:41:16;40.65;;;24.05;;
9834;SDS011;4956;50.996;13.716;2023-03-01T07:44:36;36.28;;;22.60;;
9834;SDS011;4956;50.996;13.716;2023-03-01T07:47:56;40.97;;;23.65;;
9834;SDS011;4956;50.996;13.716;2023-03-01T07:51:17;38.75;;;23.33;;
9834;SDS011;4956;50.996;13.716;2023-03-01T07:54:37;38.60;;;23.23;;
9834;SDS011;4956;50.996;13.716;2023-03-01T07:57:58;37.88;;;21.85;;
9834;SDS011;4956;50.996;13.716;2023-03-01T08:01:19;36.38;;;21.92;;
9834;SDS011;4956;50.996;13.716;2023-03-01T08:04:40;38.58;;;22.05;;
9834;SDS011;4956;50.996;13.716;2023-03-01T08:08:02;33.75;;;21.08;;
9834;SDS011;4956;50.996;13.716;2023-03-01T08:11:22;36.95;;;21.75;;
9834;SDS011;4956;50.996;13.716;2023-03-01T08:14:43;35.33;;;21.75;;
9834;SDS011;4956;50.996;13.716;2023-03-01T08:18:03;42.33;;;24.63;;
9834;SDS011;4956;50.996;13.716;2023-03-01T08:21:23;39.28;;;24.20;;
9834;SDS011;4956;50.996;13.716;2023-03-01T08:24:44;44.17;;;24.83;;
9834;SDS011;4956;50.996;13.716;2023-03-01T08:28:04;41.75;;;23.48;;
9834;SDS011;4956;50.996;13.716;2023-03-01T08:31:27;38.45;;;24.83;;
9834;SDS011;4956;50.996;13.716;2023-03-01T08:34:49;41.47;;;23.45;;
9834;SDS011;4956;50.996;13.716;2023-03-01T08:38:09;39.63;;;24.17;;
9834;SDS011;4956;50.996;13.716;2023-03-01T08:41:30;46.20;;;24.55;;
9834;SDS011;4956;50.996;13.716;2023-03-01T08:44:50;40.35;;;24.70;;
9834;SDS011;4956;50.996;13.716;2023-03-01T08:48:10;38.75;;;24.15;;
9834;SDS011;4956;50.996;13.716;2023-03-01T08:51:31;42.30;;;24.90;;
9834;SDS011;4956;50.996;13.716;2023-03-01T08:54:56;39.38;;;24.52;;
9834;SDS011;4956;50.996;13.716;2023-03-01T08:58:16;38.83;;;24.20;;
9834;SDS011;4956;50.996;13.716;2023-03-01T09:01:37;40.20;;;24.17;;
9834;SDS011;4956;50.996;13.716;2023-03-01T09:04:57;35.45;;;21.77;;
9834;SDS011;4956;50.996;13.716;2023-03-01T09:08:18;36.50;;;22.52;;
9834;SDS011;4956;50.996;13.716;2023-03-01T09:11:38;37.28;;;22.27;;
9834;SDS011;4956;50.996;13.716;2023-03-01T09:14:58;37.30;;;20.88;;
9834;SDS011;4956;50.996;13.716;2023-03-01T09:18:19;35.00;;;22.10;;
9834;SDS011;4956;50.996;13.716;2023-03-01T09:21:39;33.53;;;20.70;;
9834;SDS011;4956;50.996;13.716;2023-03-01T09:25:07;36.10;;;22.08;;
9834;SDS011;4956;50.996;13.716;2023-03-01T09:28:28;36.15;;;21.60;;
9834;SDS011;4956;50.996;13.716;2023-03-01T09:31:48;38.00;;;21.63;;
9834;SDS011;4956;50.996;13.716;2023-03-01T09:35:08;34.22;;;21.10;;
9834;SDS011;4956;50.996;13.716;2023-03-01T09:38:29;38.40;;;22.38;;
9834;SDS011;4956;50.996;13.716;2023-03-01T09:41:59;38.95;;;22.45;;
9834;SDS011;4956;50.996;13.716;2023-03-01T09:45:25;37.88;;;22.30;;
9834;SDS011;4956;50.996;13.716;2023-03-01T09:52:28;34.25;;;21.77;;
9834;SDS011;4956;50.996;13.716;2023-03-01T09:55:55;36.55;;;21.10;;
9834;SDS011;4956;50.996;13.716;2023-03-01T10:03:07;37.00;;;20.65;;
9834;SDS011;4956;50.996;13.716;2023-03-01T10:06:32;35.47;;;21.02;;
9834;SDS011;4956;50.996;13.716;2023-03-01T10:09:52;36.47;;;21.20;;
9834;SDS011;4956;50.996;13.716;2023-03-01T10:13:20;35.22;;;20.10;;
9834;SDS011;4956;50.996;13.716;2023-03-01T10:17:03;37.28;;;20.73;;
9834;SDS011;4956;50.996;13.716;2023-03-01T10:20:26;35.55;;;20.73;;
9834;SDS011;4956;50.996;13.716;2023-03-01T10:23:50;37.92;;;20.77;;
9834;SDS011;4956;50.996;13.716;2023-03-01T10:27:23;37.95;;;20.85;;
9834;SDS011;4956;50.996;13.716;2023-03-01T10:30:45;36.75;;;21.33;;
9834;SDS011;4956;50.996;13.716;2023-03-01T10:34:10;36.10;;;21.13;;
9834;SDS011;4956;50.996;13.716;2023-03-01T10:37:35;35.33;;;21.23;;
9834;SDS011;4956;50.996;13.716;2023-03-01T10:40:56;40.70;;;22.65;;
9834;SDS011;4956;50.996;13.716;2023-03-01T10:59:19;35.95;;;21.35;;
9834;SDS011;4956;50.996;13.716;2023-03-01T11:02:47;37.55;;;22.10;;
9834;SDS011;4956;50.996;13.716;2023-03-01T11:09:31;34.92;;;21.20;;
9834;SDS011;4956;50.996;13.716;2023-03-01T11:13:18;39.22;;;22.02;;
9834;SDS011;4956;50.996;13.716;2023-03-01T11:16:40;34.90;;;21.65;;
9834;SDS011;4956;50.996;13.716;2023-03-01T11:20:02;35.00;;;21.10;;
9834;SDS011;4956;50.996;13.716;2023-03-01T11:23:44;31.92;;;20.15;;
9834;SDS011;4956;50.996;13.716;2023-03-01T11:27:08;37.85;;;21.20;;
9834;SDS011;4956;50.996;13.716;2023-03-01T11:30:38;37.83;;;21.50;;
9834;SDS011;4956;50.996;13.716;2023-03-01T11:34:07;37.03;;;21.90;;
9834;SDS011;4956;50.996;13.716;2023-03-01T11:37:33;36.13;;;22.02;;
9834;SDS011;4956;50.996;13.716;2023-03-01T11:40:59;35.45;;;20.90;;
9834;SDS011;4956;50.996;13.716;2023-03-01T11:44:28;35.53;;;20.45;;
9834;SDS011;4956;50.996;13.716;2023-03-01T11:48:06;34.80;;;20.08;;
9834;SDS011;4956;50.996;13.716;2023-03-01T11:55:24;33.05;;;19.38;;
9834;SDS011;4956;50.996;13.716;2023-03-01T12:06:24;30.83;;;17.15;;
9834;SDS011;4956;50.996;13.716;2023-03-01T12:09:55;28.10;;;16.17;;
9834;SDS011;4956;50.996;13.716;2023-03-01T12:17:36;27.00;;;15.77;;
9834;SDS011;4956;50.996;13.716;2023-03-01T12:21:14;26.65;;;15.15;;
9834;SDS011;4956;50.996;13.716;2023-03-01T12:25:05;23.05;;;14.27;;
9834;SDS011;4956;50.996;13.716;2023-03-01T12:40:03;20.88;;;13.10;;
9834;SDS011;4956;50.996;13.716;2023-03-01T12:43:37;26.63;;;14.70;;
9834;SDS011;4956;50.996;13.716;2023-03-01T12:51:05;28.08;;;16.55;;
9834;SDS011;4956;50.996;13.716;2023-03-01T12:54:31;29.40;;;17.30;;
9834;SDS011;4956;50.996;13.716;2023-03-01T12:58:00;28.58;;;17.35;;
9834;SDS011;4956;50.996;13.716;2023-03-01T13:01:32;34.30;;;18.73;;
9834;SDS011;4956;50.996;13.716;2023-03-01T13:09:34;29.48;;;17.80;;
9834;SDS011;4956;50.996;13.716;2023-03-01T13:16:20;30.85;;;19.00;;
9834;SDS011;4956;50.996;13.716;2023-03-01T13:20:31;31.85;;;18.50;;
9834;SDS011;4956;50.996;13.716;2023-03-01T13:23:34;31.52;;;18.35;;
9834;SDS011;4956;50.996;13.716;2023-03-01T13:33:55;29.88;;;18.60;;
9834;SDS011;4956;50.996;13.716;2023-03-01T13:37:19;35.17;;;19.55;;
9834;SDS011;4956;50.996;13.716;2023-03-01T13:47:48;29.20;;;17.42;;
9834;SDS011;4956;50.996;13.716;2023-03-01T13:51:11;29.88;;;17.80;;
9834;SDS011;4956;50.996;13.716;2023-03-01T13:54:33;28.35;;;17.33;;
9834;SDS011;4956;50.996;13.716;2023-03-01T13:57:55;27.15;;;16.92;;
9834;SDS011;4956;50.996;13.716;2023-03-01T14:01:21;30.02;;;17.83;;
9834;SDS011;4956;50.996;13.716;2023-03-01T14:04:55;24.35;;;14.30;;
9834;SDS011;4956;50.996;13.716;2023-03-01T14:08:20;26.73;;;16.13;;
9834;SDS011;4956;50.996;13.716;2023-03-01T14:18:43;25.00;;;15.02;;
9834;SDS011;4956;50.996;13.716;2023-03-01T14:25:51;25.58;;;15.80;;
9834;SDS011;4956;50.996;13.716;2023-03-01T14:29:27;29.73;;;17.08;;
9834;SDS011;4956;50.996;13.716;2023-03-01T14:32:55;25.85;;;15.15;;
9834;SDS011;4956;50.996;13.716;2023-03-01T14:36:25;26.88;;;16.02;;
9834;SDS011;4956;50.996;13.716;2023-03-01T14:39:47;26.35;;;15.77;;
9834;SDS011;4956;50.996;13.716;2023-03-01T14:43:09;27.52;;;15.98;;
9834;SDS011;4956;50.996;13.716;2023-03-01T14:46:38;26.10;;;15.48;;
9834;SDS011;4956;50.996;13.716;2023-03-01T14:50:01;27.33;;;15.27;;
9834;SDS011;4956;50.996;13.716;2023-03-01T14:53:24;26.90;;;15.60;;
9834;SDS011;4956;50.996;13.716;2023-03-01T14:56:47;26.65;;;16.25;;
9834;SDS011;4956;50.996;13.716;2023-03-01T15:00:07;28.58;;;16.23;;
9834;SDS011;4956;50.996;13.716;2023-03-01T15:03:45;31.17;;;16.58;;
9834;SDS011;4956;50.996;13.716;2023-03-01T15:07:09;26.60;;;15.93;;
9834;SDS011;4956;50.996;13.716;2023-03-01T15:10:33;27.30;;;16.48;;
9834;SDS011;4956;50.996;13.716;2023-03-01T15:13:55;31.02;;;17.83;;
9834;SDS011;4956;50.996;13.716;2023-03-01T15:17:20;27.48;;;16.95;;
9834;SDS011;4956;50.996;13.716;2023-03-01T15:20:54;29.42;;;17.60;;
9834;SDS011;4956;50.996;13.716;2023-03-01T15:24:23;29.17;;;17.58;;
9834;SDS011;4956;50.996;13.716;2023-03-01T15:27:48;31.42;;;17.52;;
9834;SDS011;4956;50.996;13.716;2023-03-01T15:31:28;29.65;;;17.63;;
9834;SDS011;4956;50.996;13.716;2023-03-01T15:34:51;28.27;;;16.85;;
9834;SDS011;4956;50.996;13.716;2023-03-01T15:38:29;29.23;;;18.10;;
9834;SDS011;4956;50.996;13.716;2023-03-01T15:42:00;30.90;;;17.58;;
9834;SDS011;4956;50.996;13.716;2023-03-01T15:45:25;30.20;;;18.10;;
9834;SDS011;4956;50.996;13.716;2023-03-01T15:48:47;34.53;;;18.77;;
9834;SDS011;4956;50.996;13.716;2023-03-01T15:52:19;34.50;;;18.58;;
9834;SDS011;4956;50.996;13.716;2023-03-01T15:55:48;28.15;;;17.05;;
9834;SDS011;4956;50.996;13.716;2023-03-01T15:59:10;27.90;;;16.92;;
9834;SDS011;4956;50.996;13.716;2023-03-01T16:02:33;30.85;;;17.38;;
9834;SDS011;4956;50.996;13.716;2023-03-01T16:05:53;29.00;;;16.55;;
9834;SDS011;4956;50.996;13.716;2023-03-01T16:09:14;28.15;;;16.65;;
9834;SDS011;4956;50.996;13.716;2023-03-01T16:12:34;26.30;;;16.67;;
9834;SDS011;4956;50.996;13.716;2023-03-01T16:15:54;29.92;;;17.40;;
9834;SDS011;4956;50.996;13.716;2023-03-01T16:19:15;31.00;;;17.73;;
9834;SDS011;4956;50.996;13.716;2023-03-01T16:22:35;33.45;;;17.85;;
9834;SDS011;4956;50.996;13.716;2023-03-01T16:25:58;26.42;;;16.30;;
9834;SDS011;4956;50.996;13.716;2023-03-01T16:29:19;28.80;;;16.52;;
9834;SDS011;4956;50.996;13.716;2023-03-01T16:32:40;29.35;;;16.63;;
9834;SDS011;4956;50.996;13.716;2023-03-01T16:36:06;30.90;;;18.05;;
9834;SDS011;4956;50.996;13.716;2023-03-01T16:39:27;32.80;;;18.70;;
9834;SDS011;4956;50.996;13.716;2023-03-01T16:42:48;29.02;;;17.15;;
9834;SDS011;4956;50.996;13.716;2023-03-01T16:46:16;29.80;;;18.10;;
9834;SDS011;4956;50.996;13.716;2023-03-01T16:49:38;27.67;;;16.42;;
9834;SDS011;4956;50.996;13.716;2023-03-01T16:52:59;27.40;;;16.55;;
9834;SDS011;4956;50.996;13.716;2023-03-01T16:56:22;29.20;;;17.63;;
9834;SDS011;4956;50.996;13.716;2023-03-01T16:59:42;30.70;;;17.25;;
9834;SDS011;4956;50.996;13.716;2023-03-01T17:03:03;33.35;;;18.55;;
9834;SDS011;4956;50.996;13.716;2023-03-01T17:06:23;33.42;;;17.45;;
9834;SDS011;4956;50.996;13.716;2023-03-01T17:09:44;31.83;;;18.15;;
9834;SDS011;4956;50.996;13.716;2023-03-01T17:13:05;29.40;;;17.55;;
9834;SDS011;4956;50.996;13.716;2023-03-01T17:16:25;29.80;;;17.13;;
9834;SDS011;4956;50.996;13.716;2023-03-01T17:19:46;27.98;;;16.52;;
9834;SDS011;4956;50.996;13.716;2023-03-01T17:23:06;31.17;;;16.95;;
9834;SDS011;4956;50.996;13.716;2023-03-01T17:26:27;31.63;;;17.67;;
9834;SDS011;4956;50.996;13.716;2023-03-01T17:29:50;29.75;;;17.92;;
9834;SDS011;4956;50.996;13.716;2023-03-01T17:33:10;31.83;;;17.27;;
9834;SDS011;4956;50.996;13.716;2023-03-01T17:36:31;29.95;;;17.75;;
9834;SDS011;4956;50.996;13.716;2023-03-01T17:39:53;30.10;;;18.17;;
9834;SDS011;4956;50.996;13.716;2023-03-01T17:43:14;32.58;;;18.45;;
9834;SDS011;4956;50.996;13.716;2023-03-01T17:46:35;29.55;;;17.58;;
9834;SDS011;4956;50.996;13.716;2023-03-01T17:49:55;32.83;;;19.50;;
9834;SDS011;4956;50.996;13.716;2023-03-01T17:53:16;33.58;;;19.52;;
9834;SDS011;4956;50.996;13.716;2023-03-01T17:56:36;30.38;;;18.70;;
9834;SDS011;4956;50.996;13.716;2023-03-01T17:59:57;30.48;;;18.88;;
9834;SDS011;4956;50.996;13.716;2023-03-01T18:03:18;28.88;;;17.85;;
9834;SDS011;4956;50.996;13.716;2023-03-01T18:06:40;33.75;;;19.05;;
9834;SDS011;4956;50.996;13.716;2023-03-01T18:10:00;30.33;;;17.98;;
9834;SDS011;4956;50.996;13.716;2023-03-01T18:13:21;27.90;;;17.08;;
9834;SDS011;4956;50.996;13.716;2023-03-01T18:16:41;28.35;;;17.02;;
9834;SDS011;4956;50.996;13.716;2023-03-01T18:20:01;29.23;;;17.73;;
9834;SDS011;4956;50.996;13.716;2023-03-01T18:23:22;30.50;;;17.75;;
9834;SDS011;4956;50.996;13.716;2023-03-01T18:26:43;32.55;;;18.42;;
9834;SDS011;4956;50.996;13.716;2023-03-01T18:30:04;33.73;;;19.57;;
9834;SDS011;4956;50.996;13.716;2023-03-01T18:33:25;34.30;;;20.05;;
9834;SDS011;4956;50.996;13.716;2023-03-01T18:36:46;37.22;;;20.10;;
9834;SDS011;4956;50.996;13.716;2023-03-01T18:40:06;37.03;;;19.75;;
9834;SDS011;4956;50.996;13.716;2023-03-01T18:43:27;33.95;;;18.80;;
9834;SDS011;4956;50.996;13.716;2023-03-01T18:46:49;32.30;;;18.48;;
9834;SDS011;4956;50.996;13.716;2023-03-01T18:50:09;35.22;;;18.92;;
9834;SDS011;4956;50.996;13.716;2023-03-01T18:53:30;34.28;;;19.15;;
9834;SDS011;4956;50.996;13.716;2023-03-01T18:56:50;35.80;;;19.67;;
9834;SDS011;4956;50.996;13.716;2023-03-01T19:00:11;37.35;;;20.80;;
9834;SDS011;4956;50.996;13.716;2023-03-01T19:03:33;37.67;;;20.88;;
9834;SDS011;4956;50.996;13.716;2023-03-01T19:06:54;35.50;;;20.05;;
9834;SDS011;4956;50.996;13.716;2023-03-01T19:10:15;34.92;;;19.77;;
9834;SDS011;4956;50.996;13.716;2023-03-01T19:13:37;33.90;;;19.40;;
9834;SDS011;4956;50.996;13.716;2023-03-01T19:16:57;29.60;;;18.30;;
9834;SDS011;4956;50.996;13.716;2023-03-01T19:20:18;28.60;;;15.85;;
9834;SDS011;4956;50.996;13.716;2023-03-01T19:23:40;28.33;;;16.55;;
9834;SDS011;4956;50.996;13.716;2023-03-01T19:27:00;28.40;;;15.52;;
9834;SDS011;4956;50.996;13.716;2023-03-01T19:30:21;29.63;;;17.63;;
9834;SDS011;4956;50.996;13.716;2023-03-01T19:33:43;32.10;;;18.08;;
9834;SDS011;4956;50.996;13.716;2023-03-01T19:37:05;30.73;;;16.92;;
9834;SDS011;4956;50.996;13.716;2023-03-01T19:40:26;29.75;;;16.92;;
9834;SDS011;4956;50.996;13.716;2023-03-01T19:43:46;29.70;;;16.13;;
9834;SDS011;4956;50.996;13.716;2023-03-01T19:47:06;26.08;;;15.77;;
9834;SDS011;4956;50.996;13.716;2023-03-01T19:50:26;25.92;;;15.02;;
9834;SDS011;4956;50.996;13.716;2023-03-01T19:53:47;30.02;;;16.85;;
9834;SDS011;4956;50.996;13.716;2023-03-01T19:57:07;30.90;;;17.15;;
9834;SDS011;4956;50.996;13.716;2023-03-01T20:00:27;28.23;;;16.38;;
9834;SDS011;4956;50.996;13.716;2023-03-01T20:03:48;39.00;;;19.55;;
9834;SDS011;4956;50.996;13.716;2023-03-01T20:07:08;39.45;;;22.30;;
9834;SDS011;4956;50.996;13.716;2023-03-01T20:10:29;38.78;;;21.45;;
9834;SDS011;4956;50.996;13.716;2023-03-01T20:13:50;42.17;;;22.90;;
9834;SDS011;4956;50.996;13.716;2023-03-01T20:17:10;42.42;;;23.88;;
9834;SDS011;4956;50.996;13.716;2023-03-01T20:20:30;38.90;;;22.40;;
9834;SDS011;4956;50.996;13.716;2023-03-01T20:23:51;34.35;;;19.83;;
9834;SDS011;4956;50.996;13.716;2023-03-01T20:27:12;36.08;;;19.67;;
9834;SDS011;4956;50.996;13.716;2023-03-01T20:30:32;33.85;;;18.67;;
9834;SDS011;4956;50.996;13.716;2023-03-01T20:33:53;31.70;;;17.93;;
9834;SDS011;4956;50.996;13.716;2023-03-01T20:37:15;29.98;;;17.08;;
9834;SDS011;4956;50.996;13.716;2023-03-01T20:40:35;30.38;;;17.77;;
9834;SDS011;4956;50.996;13.716;2023-03-01T20:43:56;33.78;;;18.58;;
9834;SDS011;4956;50.996;13.716;2023-03-01T20:47:18;33.80;;;17.50;;
9834;SDS011;4956;50.996;13.716;2023-03-01T20:50:40;31.42;;;17.88;;
9834;SDS011;4956;50.996;13.716;2023-03-01T20:54:01;31.53;;;17.80;;
9834;SDS011;4956;50.996;13.716;2023-03-01T20:57:21;32.42;;;17.63;;
9834;SDS011;4956;50.996;13.716;2023-03-01T21:00:41;29.15;;;16.63;;
9834;SDS011;4956;50.996;13.716;2023-03-01T21:04:02;30.70;;;18.15;;
9834;SDS011;4956;50.996;13.716;2023-03-01T21:07:22;31.00;;;17.60;;
9834;SDS011;4956;50.996;13.716;2023-03-01T21:10:42;32.13;;;18.65;;
9834;SDS011;4956;50.996;13.716;2023-03-01T21:14:09;33.35;;;18.73;;
9834;SDS011;4956;50.996;13.716;2023-03-01T21:17:31;35.63;;;19.17;;
9834;SDS011;4956;50.996;13.716;2023-03-01T21:20:51;35.38;;;18.98;;
9834;SDS011;4956;50.996;13.716;2023-03-01T21:24:12;32.80;;;18.33;;
9834;SDS011;4956;50.996;13.716;2023-03-01T21:27:36;31.65;;;18.27;;
9834;SDS011;4956;50.996;13.716;2023-03-01T21:34:24;34.30;;;18.52;;
9834;SDS011;4956;50.996;13.716;2023-03-01T21:37:44;42.22;;;23.15;;